To NAV CANADA Home Page Login to a new session Search on AWWS site Feedback and Comments Disclaimer Vers la page française équivalente Tips FAQ What's new on the site To the Forecasts and Observations / NOTAM section To "File a Flight Plan" website Publications and other links Update of the User's profile FIC Telephone Numbers My Weather Data Folder Route Weather Data Regional Weather Data Local Weather Data To the Forecasts and Observations / NOTAM section
Request Generated 07/27/2016 at 06:27:20 UTC . Weather information available at that time is displayed.

METAR/TAF

STONY RAPIDS/SK    (show WxCam)

METAR CYSF 270600Z AUTO 09004KT 9SM CLR 15/09 A2997 RMK SLP155
DENSITY ALT 900FT=
METAR CYSF 270500Z AUTO VRB06G18KT 9SM CLR 16/08 A2997 RMK SLP156
DENSITY ALT 1100FT=
METAR CYSF 270400Z AUTO 09007KT 9SM CLR 18/08 A2997 RMK SLP156
DENSITY ALT 1200FT=

TAF CYSF 270538Z 2706/2718 11007KT P6SM SKC
FM271400 14005KT P6SM BKN080 TEMPO 2714/2718 P6SM -SHRA BKN050
RMK FCST BASED ON AUTO OBS. NXT FCST BY 271200Z=
Your time UTC time
Weather data provided by Environment Canada and NAV CANADA